sensor_id;sensor_type;location;lat;lon;timestamp;temperature;humidity
4687;DHT22;2357;47.316;-1.348;2022-09-09T00:03:45;16.90;99.90
4687;DHT22;2357;47.316;-1.348;2022-09-09T00:06:24;16.90;99.90
4687;DHT22;2357;47.316;-1.348;2022-09-09T00:11:46;17.00;99.90
4687;DHT22;2357;47.316;-1.348;2022-09-09T00:14:54;16.90;99.90
4687;DHT22;2357;47.316;-1.348;2022-09-09T00:22:48;16.90;99.90
4687;DHT22;2357;47.316;-1.348;2022-09-09T00:25:23;16.90;99.90
4687;DHT22;2357;47.316;-1.348;2022-09-09T00:27:49;16.90;99.90
4687;DHT22;2357;47.316;-1.348;2022-09-09T00:30:28;16.80;99.90
4687;DHT22;2357;47.316;-1.348;2022-09-09T00:33:01;16.90;99.90
4687;DHT22;2357;47.316;-1.348;2022-09-09T00:35:34;16.80;99.90
4687;DHT22;2357;47.316;-1.348;2022-09-09T00:38:06;16.80;99.90
4687;DHT22;2357;47.316;-1.348;2022-09-09T00:40:49;16.90;99.90
4687;DHT22;2357;47.316;-1.348;2022-09-09T00:59:24;16.90;99.90
4687;DHT22;2357;47.316;-1.348;2022-09-09T01:01:53;16.90;99.90
4687;DHT22;2357;47.316;-1.348;2022-09-09T01:04:27;16.80;99.90
4687;DHT22;2357;47.316;-1.348;2022-09-09T01:07:05;16.90;99.90
4687;DHT22;2357;47.316;-1.348;2022-09-09T01:09:46;16.90;99.90
4687;DHT22;2357;47.316;-1.348;2022-09-09T01:12:23;16.90;99.90
4687;DHT22;2357;47.316;-1.348;2022-09-09T01:15:03;16.90;99.90
4687;DHT22;2357;47.316;-1.348;2022-09-09T01:17:34;17.00;99.90
4687;DHT22;2357;47.316;-1.348;2022-09-09T01:20:11;17.00;99.90
4687;DHT22;2357;47.316;-1.348;2022-09-09T01:28:09;17.10;99.90
4687;DHT22;2357;47.316;-1.348;2022-09-09T01:30:39;17.10;99.90
4687;DHT22;2357;47.316;-1.348;2022-09-09T01:33:07;17.10;99.90
4687;DHT22;2357;47.316;-1.348;2022-09-09T01:35:50;17.10;99.90
4687;DHT22;2357;47.316;-1.348;2022-09-09T01:38:20;17.00;99.90
4687;DHT22;2357;47.316;-1.348;2022-09-09T01:40:47;17.00;99.90
4687;DHT22;2357;47.316;-1.348;2022-09-09T01:43:13;16.90;99.90
4687;DHT22;2357;47.316;-1.348;2022-09-09T01:45:41;17.00;99.90
4687;DHT22;2357;47.316;-1.348;2022-09-09T01:48:07;17.00;99.90
4687;DHT22;2357;47.316;-1.348;2022-09-09T01:50:33;17.00;99.90
4687;DHT22;2357;47.316;-1.348;2022-09-09T01:53:00;17.00;99.90
4687;DHT22;2357;47.316;-1.348;2022-09-09T02:04:32;17.10;99.90
4687;DHT22;2357;47.316;-1.348;2022-09-09T02:07:01;17.00;99.90
4687;DHT22;2357;47.316;-1.348;2022-09-09T02:09:29;17.00;99.90
4687;DHT22;2357;47.316;-1.348;2022-09-09T02:12:05;17.00;99.90
4687;DHT22;2357;47.316;-1.348;2022-09-09T02:14:37;17.00;99.90
4687;DHT22;2357;47.316;-1.348;2022-09-09T02:17:10;17.00;99.90
4687;DHT22;2357;47.316;-1.348;2022-09-09T02:19:45;17.00;99.90
4687;DHT22;2357;47.316;-1.348;2022-09-09T02:22:17;16.90;99.90
4687;DHT22;2357;47.316;-1.348;2022-09-09T02:24:44;16.90;99.90
4687;DHT22;2357;47.316;-1.348;2022-09-09T02:27:12;16.90;99.90
4687;DHT22;2357;47.316;-1.348;2022-09-09T02:29:41;16.90;99.90
4687;DHT22;2357;47.316;-1.348;2022-09-09T02:32:12;16.90;99.90
4687;DHT22;2357;47.316;-1.348;2022-09-09T02:34:43;16.80;99.90
4687;DHT22;2357;47.316;-1.348;2022-09-09T02:37:11;16.80;99.90
4687;DHT22;2357;47.316;-1.348;2022-09-09T02:39:37;16.70;99.90
4687;DHT22;2357;47.316;-1.348;2022-09-09T02:42:06;16.70;99.90
4687;DHT22;2357;47.316;-1.348;2022-09-09T02:44:33;16.70;99.90
4687;DHT22;2357;47.316;-1.348;2022-09-09T02:52:04;16.70;99.90
4687;DHT22;2357;47.316;-1.348;2022-09-09T02:54:37;16.70;99.90
4687;DHT22;2357;47.316;-1.348;2022-09-09T02:57:27;16.70;99.90
4687;DHT22;2357;47.316;-1.348;2022-09-09T02:59:57;16.60;99.90
4687;DHT22;2357;47.316;-1.348;2022-09-09T03:02:23;16.60;99.90
4687;DHT22;2357;47.316;-1.348;2022-09-09T03:04:50;16.50;99.90
4687;DHT22;2357;47.316;-1.348;2022-09-09T03:07:18;16.60;99.90
4687;DHT22;2357;47.316;-1.348;2022-09-09T03:09:44;16.60;99.90
4687;DHT22;2357;47.316;-1.348;2022-09-09T03:12:10;16.50;99.90
4687;DHT22;2357;47.316;-1.348;2022-09-09T03:14:37;16.50;99.90
4687;DHT22;2357;47.316;-1.348;2022-09-09T03:17:04;16.50;99.90
4687;DHT22;2357;47.316;-1.348;2022-09-09T03:19:30;16.60;99.90
4687;DHT22;2357;47.316;-1.348;2022-09-09T03:21:57;16.60;99.90
4687;DHT22;2357;47.316;-1.348;2022-09-09T03:24:23;16.60;99.90
4687;DHT22;2357;47.316;-1.348;2022-09-09T03:26:49;16.70;99.90
4687;DHT22;2357;47.316;-1.348;2022-09-09T03:29:16;16.70;99.90
4687;DHT22;2357;47.316;-1.348;2022-09-09T03:31:42;16.70;99.90
4687;DHT22;2357;47.316;-1.348;2022-09-09T03:34:08;16.70;99.90
4687;DHT22;2357;47.316;-1.348;2022-09-09T03:36:34;16.70;99.90
4687;DHT22;2357;47.316;-1.348;2022-09-09T03:38:59;16.80;99.90
4687;DHT22;2357;47.316;-1.348;2022-09-09T03:41:26;16.80;99.90
4687;DHT22;2357;47.316;-1.348;2022-09-09T03:43:53;16.80;99.90
4687;DHT22;2357;47.316;-1.348;2022-09-09T03:46:24;16.80;99.90
4687;DHT22;2357;47.316;-1.348;2022-09-09T03:48:50;16.80;99.90
4687;DHT22;2357;47.316;-1.348;2022-09-09T03:51:18;16.80;99.90
4687;DHT22;2357;47.316;-1.348;2022-09-09T03:53:43;16.80;99.90
4687;DHT22;2357;47.316;-1.348;2022-09-09T03:56:09;16.80;99.90
4687;DHT22;2357;47.316;-1.348;2022-09-09T03:58:36;16.80;99.90
4687;DHT22;2357;47.316;-1.348;2022-09-09T04:01:07;16.70;99.90
4687;DHT22;2357;47.316;-1.348;2022-09-09T04:03:34;16.80;99.90
4687;DHT22;2357;47.316;-1.348;2022-09-09T04:06:01;16.70;99.90
4687;DHT22;2357;47.316;-1.348;2022-09-09T04:08:28;16.70;99.90
4687;DHT22;2357;47.316;-1.348;2022-09-09T04:10:56;16.70;99.90
4687;DHT22;2357;47.316;-1.348;2022-09-09T04:13:24;16.70;99.90
4687;DHT22;2357;47.316;-1.348;2022-09-09T04:15:54;16.70;99.90
4687;DHT22;2357;47.316;-1.348;2022-09-09T04:18:21;16.70;99.90
4687;DHT22;2357;47.316;-1.348;2022-09-09T04:20:48;16.70;99.90
4687;DHT22;2357;47.316;-1.348;2022-09-09T04:23:14;16.70;99.90
4687;DHT22;2357;47.316;-1.348;2022-09-09T04:25:53;16.60;99.90
4687;DHT22;2357;47.316;-1.348;2022-09-09T04:28:22;16.60;99.90
4687;DHT22;2357;47.316;-1.348;2022-09-09T04:30:48;16.70;99.90
4687;DHT22;2357;47.316;-1.348;2022-09-09T04:33:14;16.70;99.90
4687;DHT22;2357;47.316;-1.348;2022-09-09T04:35:50;16.60;99.90
4687;DHT22;2357;47.316;-1.348;2022-09-09T04:38:16;16.70;99.90
4687;DHT22;2357;47.316;-1.348;2022-09-09T04:40:46;16.70;99.90
4687;DHT22;2357;47.316;-1.348;2022-09-09T04:43:13;16.60;99.90
4687;DHT22;2357;47.316;-1.348;2022-09-09T04:45:40;16.60;99.90
4687;DHT22;2357;47.316;-1.348;2022-09-09T04:48:06;16.60;99.90
4687;DHT22;2357;47.316;-1.348;2022-09-09T04:50:32;16.50;99.90
4687;DHT22;2357;47.316;-1.348;2022-09-09T04:53:02;16.50;99.90
4687;DHT22;2357;47.316;-1.348;2022-09-09T04:55:28;16.40;99.90
4687;DHT22;2357;47.316;-1.348;2022-09-09T04:57:54;16.50;99.90
4687;DHT22;2357;47.316;-1.348;2022-09-09T05:00:20;16.50;99.90
4687;DHT22;2357;47.316;-1.348;2022-09-09T05:02:45;16.40;99.90
4687;DHT22;2357;47.316;-1.348;2022-09-09T05:05:12;16.40;99.90
4687;DHT22;2357;47.316;-1.348;2022-09-09T05:07:38;16.40;99.90
4687;DHT22;2357;47.316;-1.348;2022-09-09T05:10:04;16.50;99.90
4687;DHT22;2357;47.316;-1.348;2022-09-09T05:12:30;16.50;99.90
4687;DHT22;2357;47.316;-1.348;2022-09-09T05:14:56;16.50;99.90
4687;DHT22;2357;47.316;-1.348;2022-09-09T05:17:23;16.50;99.90
4687;DHT22;2357;47.316;-1.348;2022-09-09T05:19:48;16.40;99.90
4687;DHT22;2357;47.316;-1.348;2022-09-09T05:22:19;16.40;99.90
4687;DHT22;2357;47.316;-1.348;2022-09-09T05:24:45;16.40;99.90
4687;DHT22;2357;47.316;-1.348;2022-09-09T05:27:11;16.40;99.90
4687;DHT22;2357;47.316;-1.348;2022-09-09T05:29:38;16.40;99.90
4687;DHT22;2357;47.316;-1.348;2022-09-09T05:32:04;16.30;99.90
4687;DHT22;2357;47.316;-1.348;2022-09-09T05:34:30;16.30;99.90
4687;DHT22;2357;47.316;-1.348;2022-09-09T05:36:55;16.30;99.90
4687;DHT22;2357;47.316;-1.348;2022-09-09T05:39:21;16.30;99.90
4687;DHT22;2357;47.316;-1.348;2022-09-09T05:41:47;16.30;99.90
4687;DHT22;2357;47.316;-1.348;2022-09-09T05:44:12;16.30;99.90
4687;DHT22;2357;47.316;-1.348;2022-09-09T05:46:39;16.20;99.90
4687;DHT22;2357;47.316;-1.348;2022-09-09T05:49:05;16.30;99.90
4687;DHT22;2357;47.316;-1.348;2022-09-09T05:51:31;16.20;99.90
4687;DHT22;2357;47.316;-1.348;2022-09-09T05:53:57;16.20;99.90
4687;DHT22;2357;47.316;-1.348;2022-09-09T05:56:27;16.20;99.90
4687;DHT22;2357;47.316;-1.348;2022-09-09T05:58:54;16.10;99.90
4687;DHT22;2357;47.316;-1.348;2022-09-09T06:03:48;16.10;99.90
4687;DHT22;2357;47.316;-1.348;2022-09-09T06:06:17;16.10;99.90
4687;DHT22;2357;47.316;-1.348;2022-09-09T06:08:44;16.10;99.90
4687;DHT22;2357;47.316;-1.348;2022-09-09T06:13:39;16.00;99.90
4687;DHT22;2357;47.316;-1.348;2022-09-09T06:16:13;16.10;99.90
4687;DHT22;2357;47.316;-1.348;2022-09-09T06:18:39;16.00;99.90
4687;DHT22;2357;47.316;-1.348;2022-09-09T06:21:06;16.00;99.90
4687;DHT22;2357;47.316;-1.348;2022-09-09T06:23:33;16.10;99.90
4687;DHT22;2357;47.316;-1.348;2022-09-09T06:28:32;16.40;99.90
4687;DHT22;2357;47.316;-1.348;2022-09-09T06:31:03;16.60;99.90
4687;DHT22;2357;47.316;-1.348;2022-09-09T06:33:34;16.70;99.90
4687;DHT22;2357;47.316;-1.348;2022-09-09T06:36:01;16.80;99.90
4687;DHT22;2357;47.316;-1.348;2022-09-09T06:38:27;16.90;99.90
4687;DHT22;2357;47.316;-1.348;2022-09-09T06:40:58;16.90;99.90
4687;DHT22;2357;47.316;-1.348;2022-09-09T06:43:27;16.80;99.90
4687;DHT22;2357;47.316;-1.348;2022-09-09T06:45:57;16.80;99.90
4687;DHT22;2357;47.316;-1.348;2022-09-09T06:48:23;16.70;99.90
4687;DHT22;2357;47.316;-1.348;2022-09-09T06:50:59;16.80;99.90
4687;DHT22;2357;47.316;-1.348;2022-09-09T06:53:26;16.90;99.90
4687;DHT22;2357;47.316;-1.348;2022-09-09T06:55:52;16.90;99.90
4687;DHT22;2357;47.316;-1.348;2022-09-09T06:58:18;17.00;99.90
4687;DHT22;2357;47.316;-1.348;2022-09-09T07:00:44;17.00;99.90
4687;DHT22;2357;47.316;-1.348;2022-09-09T07:03:10;17.00;99.90
4687;DHT22;2357;47.316;-1.348;2022-09-09T07:05:36;17.00;99.90
4687;DHT22;2357;47.316;-1.348;2022-09-09T07:08:02;16.90;99.90
4687;DHT22;2357;47.316;-1.348;2022-09-09T07:10:28;16.90;99.90
4687;DHT22;2357;47.316;-1.348;2022-09-09T07:12:53;17.00;99.90
4687;DHT22;2357;47.316;-1.348;2022-09-09T07:15:20;17.20;99.90
4687;DHT22;2357;47.316;-1.348;2022-09-09T07:17:47;17.40;99.90
4687;DHT22;2357;47.316;-1.348;2022-09-09T07:20:13;17.50;99.90
4687;DHT22;2357;47.316;-1.348;2022-09-09T07:22:40;17.50;99.90
4687;DHT22;2357;47.316;-1.348;2022-09-09T07:25:06;17.60;99.90
4687;DHT22;2357;47.316;-1.348;2022-09-09T07:27:32;17.70;99.90
4687;DHT22;2357;47.316;-1.348;2022-09-09T07:29:58;17.70;99.90
4687;DHT22;2357;47.316;-1.348;2022-09-09T07:32:23;17.60;99.90
4687;DHT22;2357;47.316;-1.348;2022-09-09T07:34:51;17.50;99.90
4687;DHT22;2357;47.316;-1.348;2022-09-09T07:37:17;17.50;99.90
4687;DHT22;2357;47.316;-1.348;2022-09-09T07:39:43;17.40;99.90
4687;DHT22;2357;47.316;-1.348;2022-09-09T07:42:09;17.20;99.90
4687;DHT22;2357;47.316;-1.348;2022-09-09T07:44:37;17.20;99.90
4687;DHT22;2357;47.316;-1.348;2022-09-09T07:47:05;17.20;99.90
4687;DHT22;2357;47.316;-1.348;2022-09-09T07:49:31;17.40;99.90
4687;DHT22;2357;47.316;-1.348;2022-09-09T07:51:58;17.50;99.90
4687;DHT22;2357;47.316;-1.348;2022-09-09T07:54:23;17.60;99.90
4687;DHT22;2357;47.316;-1.348;2022-09-09T07:56:50;17.70;99.90
4687;DHT22;2357;47.316;-1.348;2022-09-09T07:59:16;17.70;99.90
4687;DHT22;2357;47.316;-1.348;2022-09-09T08:01:47;17.70;99.90
4687;DHT22;2357;47.316;-1.348;2022-09-09T08:04:17;17.70;99.90
4687;DHT22;2357;47.316;-1.348;2022-09-09T08:06:48;17.70;99.90
4687;DHT22;2357;47.316;-1.348;2022-09-09T08:09:15;17.80;99.90
4687;DHT22;2357;47.316;-1.348;2022-09-09T08:11:42;17.90;99.90
4687;DHT22;2357;47.316;-1.348;2022-09-09T08:14:08;18.10;99.90
4687;DHT22;2357;47.316;-1.348;2022-09-09T08:16:37;18.30;99.90
4687;DHT22;2357;47.316;-1.348;2022-09-09T08:19:03;18.40;99.90
4687;DHT22;2357;47.316;-1.348;2022-09-09T08:21:31;18.30;99.90
4687;DHT22;2357;47.316;-1.348;2022-09-09T08:23:58;18.30;99.90
4687;DHT22;2357;47.316;-1.348;2022-09-09T08:26:29;18.30;99.90
4687;DHT22;2357;47.316;-1.348;2022-09-09T08:28:57;18.30;99.90
4687;DHT22;2357;47.316;-1.348;2022-09-09T08:31:37;18.20;99.90
4687;DHT22;2357;47.316;-1.348;2022-09-09T08:34:03;18.20;99.90
4687;DHT22;2357;47.316;-1.348;2022-09-09T08:36:32;18.30;99.90
4687;DHT22;2357;47.316;-1.348;2022-09-09T08:38:59;18.40;99.90
4687;DHT22;2357;47.316;-1.348;2022-09-09T08:52:27;18.90;99.90
4687;DHT22;2357;47.316;-1.348;2022-09-09T08:54:58;19.00;99.90
4687;DHT22;2357;47.316;-1.348;2022-09-09T08:57:29;19.10;99.90
4687;DHT22;2357;47.316;-1.348;2022-09-09T08:59:57;19.40;99.90
4687;DHT22;2357;47.316;-1.348;2022-09-09T09:05:37;19.70;99.90
4687;DHT22;2357;47.316;-1.348;2022-09-09T09:10:57;19.60;99.90
4687;DHT22;2357;47.316;-1.348;2022-09-09T09:18:47;19.40;99.90
4687;DHT22;2357;47.316;-1.348;2022-09-09T09:21:15;19.40;99.90
4687;DHT22;2357;47.316;-1.348;2022-09-09T09:23:51;19.40;99.90
4687;DHT22;2357;47.316;-1.348;2022-09-09T09:26:19;19.50;99.90
4687;DHT22;2357;47.316;-1.348;2022-09-09T09:28:47;19.50;99.90
4687;DHT22;2357;47.316;-1.348;2022-09-09T09:31:13;19.50;99.90
4687;DHT22;2357;47.316;-1.348;2022-09-09T09:36:12;19.80;99.90
4687;DHT22;2357;47.316;-1.348;2022-09-09T09:39:00;19.70;99.90
4687;DHT22;2357;47.316;-1.348;2022-09-09T09:43:56;19.70;99.90
4687;DHT22;2357;47.316;-1.348;2022-09-09T09:46:25;19.90;99.90
4687;DHT22;2357;47.316;-1.348;2022-09-09T09:49:02;20.10;99.90
4687;DHT22;2357;47.316;-1.348;2022-09-09T09:51:32;20.10;99.90
4687;DHT22;2357;47.316;-1.348;2022-09-09T09:54:30;20.50;99.90
4687;DHT22;2357;47.316;-1.348;2022-09-09T09:56:56;20.50;99.90
4687;DHT22;2357;47.316;-1.348;2022-09-09T09:59:34;20.30;99.90
4687;DHT22;2357;47.316;-1.348;2022-09-09T10:02:48;20.10;99.90
4687;DHT22;2357;47.316;-1.348;2022-09-09T10:05:23;19.60;99.90
4687;DHT22;2357;47.316;-1.348;2022-09-09T10:08:20;19.10;99.90
4687;DHT22;2357;47.316;-1.348;2022-09-09T10:19:02;18.70;99.90
4687;DHT22;2357;47.316;-1.348;2022-09-09T10:27:44;19.50;99.90
4687;DHT22;2357;47.316;-1.348;2022-09-09T10:36:23;20.00;99.90
4687;DHT22;2357;47.316;-1.348;2022-09-09T10:38:40;19.70;99.90
4687;DHT22;2357;47.316;-1.348;2022-09-09T10:46:40;20.20;99.90
4687;DHT22;2357;47.316;-1.348;2022-09-09T10:52:35;19.60;99.90
4687;DHT22;2357;47.316;-1.348;2022-09-09T10:55:18;19.70;99.90
4687;DHT22;2357;47.316;-1.348;2022-09-09T10:57:50;19.90;99.90
4687;DHT22;2357;47.316;-1.348;2022-09-09T11:00:23;19.90;99.90
4687;DHT22;2357;47.316;-1.348;2022-09-09T11:02:58;20.00;99.90
4687;DHT22;2357;47.316;-1.348;2022-09-09T11:05:33;20.10;99.90
4687;DHT22;2357;47.316;-1.348;2022-09-09T11:08:15;20.10;99.90
4687;DHT22;2357;47.316;-1.348;2022-09-09T11:16:05;21.10;99.90
4687;DHT22;2357;47.316;-1.348;2022-09-09T11:18:38;20.90;99.90
4687;DHT22;2357;47.316;-1.348;2022-09-09T11:21:21;20.70;99.90
4687;DHT22;2357;47.316;-1.348;2022-09-09T11:23:54;20.90;99.90
4687;DHT22;2357;47.316;-1.348;2022-09-09T11:26:37;21.20;99.90
4687;DHT22;2357;47.316;-1.348;2022-09-09T11:38:20;22.00;99.90
4687;DHT22;2357;47.316;-1.348;2022-09-09T11:40:53;22.00;99.90
4687;DHT22;2357;47.316;-1.348;2022-09-09T11:43:26;21.90;99.90
4687;DHT22;2357;47.316;-1.348;2022-09-09T11:45:55;22.20;99.90
4687;DHT22;2357;47.316;-1.348;2022-09-09T11:48:35;22.30;99.90
4687;DHT22;2357;47.316;-1.348;2022-09-09T11:51:48;22.40;99.90
4687;DHT22;2357;47.316;-1.348;2022-09-09T11:53:56;22.80;99.90
4687;DHT22;2357;47.316;-1.348;2022-09-09T11:56:30;22.80;99.90
4687;DHT22;2357;47.316;-1.348;2022-09-09T11:59:21;23.00;99.90
4687;DHT22;2357;47.316;-1.348;2022-09-09T12:02:14;23.10;99.90
4687;DHT22;2357;47.316;-1.348;2022-09-09T12:05:04;23.00;99.90
4687;DHT22;2357;47.316;-1.348;2022-09-09T12:07:51;22.90;99.90
4687;DHT22;2357;47.316;-1.348;2022-09-09T12:12:47;22.90;99.90
4687;DHT22;2357;47.316;-1.348;2022-09-09T12:15:25;23.00;99.90
4687;DHT22;2357;47.316;-1.348;2022-09-09T12:17:55;23.30;99.90
4687;DHT22;2357;47.316;-1.348;2022-09-09T12:20:34;22.80;99.90
4687;DHT22;2357;47.316;-1.348;2022-09-09T12:31:26;22.40;99.90
4687;DHT22;2357;47.316;-1.348;2022-09-09T12:34:48;22.00;99.90
4687;DHT22;2357;47.316;-1.348;2022-09-09T12:39:51;22.40;99.90
4687;DHT22;2357;47.316;-1.348;2022-09-09T12:42:20;22.60;99.90
4687;DHT22;2357;47.316;-1.348;2022-09-09T12:47:30;22.40;99.90
4687;DHT22;2357;47.316;-1.348;2022-09-09T12:49:57;22.20;99.90
4687;DHT22;2357;47.316;-1.348;2022-09-09T12:52:30;22.70;99.90
4687;DHT22;2357;47.316;-1.348;2022-09-09T12:54:59;22.60;99.90
4687;DHT22;2357;47.316;-1.348;2022-09-09T12:57:26;22.80;99.90
4687;DHT22;2357;47.316;-1.348;2022-09-09T13:00:07;22.50;99.90
4687;DHT22;2357;47.316;-1.348;2022-09-09T13:02:35;22.60;99.90
4687;DHT22;2357;47.316;-1.348;2022-09-09T13:05:15;22.30;99.90
4687;DHT22;2357;47.316;-1.348;2022-09-09T13:07:42;22.40;99.90
4687;DHT22;2357;47.316;-1.348;2022-09-09T13:10:11;22.70;99.90
4687;DHT22;2357;47.316;-1.348;2022-09-09T13:12:37;23.10;99.90
4687;DHT22;2357;47.316;-1.348;2022-09-09T13:15:03;23.40;99.90
4687;DHT22;2357;47.316;-1.348;2022-09-09T13:17:29;23.30;99.90
4687;DHT22;2357;47.316;-1.348;2022-09-09T13:19:56;23.30;99.90
4687;DHT22;2357;47.316;-1.348;2022-09-09T13:22:33;23.20;99.90
4687;DHT22;2357;47.316;-1.348;2022-09-09T13:27:36;22.30;99.90
4687;DHT22;2357;47.316;-1.348;2022-09-09T13:38:37;22.10;99.90
4687;DHT22;2357;47.316;-1.348;2022-09-09T13:41:05;22.20;99.90
4687;DHT22;2357;47.316;-1.348;2022-09-09T13:43:42;22.30;99.90
4687;DHT22;2357;47.316;-1.348;2022-09-09T13:49:21;22.60;99.90
4687;DHT22;2357;47.316;-1.348;2022-09-09T13:51:50;22.70;99.90
4687;DHT22;2357;47.316;-1.348;2022-09-09T13:54:19;22.50;99.90
4687;DHT22;2357;47.316;-1.348;2022-09-09T13:56:45;22.40;99.90
4687;DHT22;2357;47.316;-1.348;2022-09-09T13:59:16;22.10;99.90
4687;DHT22;2357;47.316;-1.348;2022-09-09T14:01:43;21.90;99.90
4687;DHT22;2357;47.316;-1.348;2022-09-09T14:04:10;21.90;99.90
4687;DHT22;2357;47.316;-1.348;2022-09-09T14:06:36;22.00;99.90
4687;DHT22;2357;47.316;-1.348;2022-09-09T14:09:05;21.80;99.90
4687;DHT22;2357;47.316;-1.348;2022-09-09T14:11:31;21.60;99.90
4687;DHT22;2357;47.316;-1.348;2022-09-09T14:13:57;21.60;99.90
4687;DHT22;2357;47.316;-1.348;2022-09-09T14:16:22;21.90;99.90
4687;DHT22;2357;47.316;-1.348;2022-09-09T14:18:48;22.00;99.90
4687;DHT22;2357;47.316;-1.348;2022-09-09T14:21:14;21.70;99.90
4687;DHT22;2357;47.316;-1.348;2022-09-09T14:23:41;21.90;99.90
4687;DHT22;2357;47.316;-1.348;2022-09-09T14:26:07;22.70;99.90
4687;DHT22;2357;47.316;-1.348;2022-09-09T14:28:34;23.30;99.90
4687;DHT22;2357;47.316;-1.348;2022-09-09T14:31:01;22.80;99.90
4687;DHT22;2357;47.316;-1.348;2022-09-09T14:33:28;22.90;99.90
4687;DHT22;2357;47.316;-1.348;2022-09-09T14:35:57;22.80;99.90
4687;DHT22;2357;47.316;-1.348;2022-09-09T14:38:24;22.60;99.90
4687;DHT22;2357;47.316;-1.348;2022-09-09T14:40:50;22.70;99.90
4687;DHT22;2357;47.316;-1.348;2022-09-09T14:43:16;23.10;99.90
4687;DHT22;2357;47.316;-1.348;2022-09-09T14:45:41;23.20;99.90
4687;DHT22;2357;47.316;-1.348;2022-09-09T14:48:08;23.70;99.90
4687;DHT22;2357;47.316;-1.348;2022-09-09T14:50:34;23.40;99.90
4687;DHT22;2357;47.316;-1.348;2022-09-09T14:53:02;23.40;99.90
4687;DHT22;2357;47.316;-1.348;2022-09-09T14:55:27;23.80;99.90
4687;DHT22;2357;47.316;-1.348;2022-09-09T14:57:54;24.40;99.90
4687;DHT22;2357;47.316;-1.348;2022-09-09T15:00:20;23.70;99.90
4687;DHT22;2357;47.316;-1.348;2022-09-09T15:02:45;22.90;99.90
4687;DHT22;2357;47.316;-1.348;2022-09-09T15:05:11;22.70;99.90
4687;DHT22;2357;47.316;-1.348;2022-09-09T15:07:37;22.50;99.90
4687;DHT22;2357;47.316;-1.348;2022-09-09T15:10:03;22.10;99.90
4687;DHT22;2357;47.316;-1.348;2022-09-09T15:12:29;22.60;99.90
4687;DHT22;2357;47.316;-1.348;2022-09-09T15:14:55;23.00;99.90
4687;DHT22;2357;47.316;-1.348;2022-09-09T15:17:21;23.60;99.90
4687;DHT22;2357;47.316;-1.348;2022-09-09T15:19:47;23.60;99.90
4687;DHT22;2357;47.316;-1.348;2022-09-09T15:22:12;23.90;99.90
4687;DHT22;2357;47.316;-1.348;2022-09-09T15:24:38;23.90;99.90
4687;DHT22;2357;47.316;-1.348;2022-09-09T15:27:04;24.00;99.90
4687;DHT22;2357;47.316;-1.348;2022-09-09T15:29:30;23.80;99.90
4687;DHT22;2357;47.316;-1.348;2022-09-09T15:31:55;23.70;99.90
4687;DHT22;2357;47.316;-1.348;2022-09-09T15:34:22;23.70;99.90
4687;DHT22;2357;47.316;-1.348;2022-09-09T15:36:48;23.40;99.90
4687;DHT22;2357;47.316;-1.348;2022-09-09T15:39:16;23.70;99.90
4687;DHT22;2357;47.316;-1.348;2022-09-09T15:41:43;23.70;99.90
4687;DHT22;2357;47.316;-1.348;2022-09-09T15:44:10;23.80;99.90
4687;DHT22;2357;47.316;-1.348;2022-09-09T15:46:39;23.90;99.90
4687;DHT22;2357;47.316;-1.348;2022-09-09T15:49:38;24.00;99.90
4687;DHT22;2357;47.316;-1.348;2022-09-09T15:52:04;23.90;99.90
4687;DHT22;2357;47.316;-1.348;2022-09-09T15:54:32;25.20;99.90
4687;DHT22;2357;47.316;-1.348;2022-09-09T15:57:01;27.50;99.90
4687;DHT22;2357;47.316;-1.348;2022-09-09T15:59:29;31.40;99.90
4687;DHT22;2357;47.316;-1.348;2022-09-09T16:01:55;32.10;99.90
4687;DHT22;2357;47.316;-1.348;2022-09-09T16:04:22;32.60;99.90
4687;DHT22;2357;47.316;-1.348;2022-09-09T16:06:57;28.50;99.90
4687;DHT22;2357;47.316;-1.348;2022-09-09T16:09:27;26.70;99.90
4687;DHT22;2357;47.316;-1.348;2022-09-09T16:11:56;25.00;99.90
4687;DHT22;2357;47.316;-1.348;2022-09-09T16:14:21;24.00;99.90
4687;DHT22;2357;47.316;-1.348;2022-09-09T16:16:47;23.50;99.90
4687;DHT22;2357;47.316;-1.348;2022-09-09T16:19:13;22.80;99.90
4687;DHT22;2357;47.316;-1.348;2022-09-09T16:21:45;22.80;99.90
4687;DHT22;2357;47.316;-1.348;2022-09-09T16:24:13;23.10;99.90
4687;DHT22;2357;47.316;-1.348;2022-09-09T16:26:42;22.40;99.90
4687;DHT22;2357;47.316;-1.348;2022-09-09T16:29:10;22.60;99.90
4687;DHT22;2357;47.316;-1.348;2022-09-09T16:31:36;22.60;99.90
4687;DHT22;2357;47.316;-1.348;2022-09-09T16:34:02;22.80;99.90
4687;DHT22;2357;47.316;-1.348;2022-09-09T16:36:30;22.90;99.90
4687;DHT22;2357;47.316;-1.348;2022-09-09T16:38:58;22.90;99.90
4687;DHT22;2357;47.316;-1.348;2022-09-09T16:41:25;23.20;99.90
4687;DHT22;2357;47.316;-1.348;2022-09-09T16:43:58;23.20;99.90
4687;DHT22;2357;47.316;-1.348;2022-09-09T16:46:26;22.80;99.90
4687;DHT22;2357;47.316;-1.348;2022-09-09T16:48:53;22.40;99.90
4687;DHT22;2357;47.316;-1.348;2022-09-09T16:51:23;21.90;99.90
4687;DHT22;2357;47.316;-1.348;2022-09-09T16:53:49;21.70;99.90
4687;DHT22;2357;47.316;-1.348;2022-09-09T16:56:17;21.50;99.90
4687;DHT22;2357;47.316;-1.348;2022-09-09T16:58:49;21.50;99.90
4687;DHT22;2357;47.316;-1.348;2022-09-09T17:01:15;21.60;99.90
4687;DHT22;2357;47.316;-1.348;2022-09-09T17:03:41;21.70;99.90
4687;DHT22;2357;47.316;-1.348;2022-09-09T17:06:15;21.30;99.90
4687;DHT22;2357;47.316;-1.348;2022-09-09T17:08:41;21.50;99.90
4687;DHT22;2357;47.316;-1.348;2022-09-09T17:11:15;21.30;99.90
4687;DHT22;2357;47.316;-1.348;2022-09-09T17:13:42;21.00;99.90
4687;DHT22;2357;47.316;-1.348;2022-09-09T17:16:09;21.00;99.90
4687;DHT22;2357;47.316;-1.348;2022-09-09T17:18:36;20.90;99.90
4687;DHT22;2357;47.316;-1.348;2022-09-09T17:21:13;21.10;99.90
4687;DHT22;2357;47.316;-1.348;2022-09-09T17:23:40;21.10;99.90
4687;DHT22;2357;47.316;-1.348;2022-09-09T17:26:08;20.90;99.90
4687;DHT22;2357;47.316;-1.348;2022-09-09T17:28:36;20.90;99.90
4687;DHT22;2357;47.316;-1.348;2022-09-09T17:31:08;21.00;99.90
4687;DHT22;2357;47.316;-1.348;2022-09-09T17:33:36;21.10;99.90
4687;DHT22;2357;47.316;-1.348;2022-09-09T17:36:11;21.20;99.90
4687;DHT22;2357;47.316;-1.348;2022-09-09T17:38:37;21.00;99.90
4687;DHT22;2357;47.316;-1.348;2022-09-09T17:41:06;20.90;99.90
4687;DHT22;2357;47.316;-1.348;2022-09-09T17:43:32;20.70;99.90
4687;DHT22;2357;47.316;-1.348;2022-09-09T17:46:12;20.60;99.90
4687;DHT22;2357;47.316;-1.348;2022-09-09T17:48:39;20.50;99.90
4687;DHT22;2357;47.316;-1.348;2022-09-09T17:51:06;20.50;99.90
4687;DHT22;2357;47.316;-1.348;2022-09-09T17:53:37;20.50;99.90
4687;DHT22;2357;47.316;-1.348;2022-09-09T17:56:05;20.50;99.90
4687;DHT22;2357;47.316;-1.348;2022-09-09T17:58:32;20.40;99.90
4687;DHT22;2357;47.316;-1.348;2022-09-09T18:01:19;20.30;99.90
4687;DHT22;2357;47.316;-1.348;2022-09-09T18:03:46;20.20;99.90
4687;DHT22;2357;47.316;-1.348;2022-09-09T18:06:20;20.20;99.90
4687;DHT22;2357;47.316;-1.348;2022-09-09T18:08:51;20.10;99.90
4687;DHT22;2357;47.316;-1.348;2022-09-09T18:11:19;20.00;99.90
4687;DHT22;2357;47.316;-1.348;2022-09-09T18:13:49;20.20;99.90
4687;DHT22;2357;47.316;-1.348;2022-09-09T18:16:14;20.10;99.90
4687;DHT22;2357;47.316;-1.348;2022-09-09T18:18:40;20.00;99.90
4687;DHT22;2357;47.316;-1.348;2022-09-09T18:21:07;20.00;99.90
4687;DHT22;2357;47.316;-1.348;2022-09-09T18:23:38;19.90;99.90
4687;DHT22;2357;47.316;-1.348;2022-09-09T18:26:13;19.80;99.90
4687;DHT22;2357;47.316;-1.348;2022-09-09T18:28:41;19.90;99.90
4687;DHT22;2357;47.316;-1.348;2022-09-09T18:31:11;20.00;99.90
4687;DHT22;2357;47.316;-1.348;2022-09-09T18:33:40;19.90;99.90
4687;DHT22;2357;47.316;-1.348;2022-09-09T18:36:11;19.90;99.90